createdAt,value
2023-01-13T00:01:15.941Z,1.23
2023-01-13T00:04:05.093Z,1.10
2023-01-13T00:06:52.655Z,1.00
2023-01-13T00:09:39.752Z,1.20
2023-01-13T00:12:29.999Z,1.00
2023-01-13T00:15:17.370Z,1.00
2023-01-13T00:18:04.526Z,1.10
2023-01-13T00:21:06.858Z,1.27
2023-01-13T00:23:55.222Z,1.50
2023-01-13T00:26:42.719Z,1.17
2023-01-13T00:29:29.912Z,1.38
2023-01-13T00:32:17.315Z,1.45
2023-01-13T00:35:04.897Z,1.13
2023-01-13T00:37:52.029Z,1.45
2023-01-13T00:40:39.150Z,1.40
2023-01-13T00:43:27.813Z,0.95
2023-01-13T00:46:17.614Z,1.23
2023-01-13T00:49:04.978Z,1.27
2023-01-13T00:51:52.193Z,1.30
2023-01-13T00:54:39.663Z,1.20
2023-01-13T00:57:26.764Z,1.40
2023-01-13T01:00:14.628Z,1.60
2023-01-13T01:03:03.112Z,1.20
2023-01-13T01:05:50.589Z,1.00
2023-01-13T01:08:37.950Z,1.20
2023-01-13T01:11:30.576Z,1.40
2023-01-13T01:14:17.707Z,1.38
2023-01-13T01:17:04.918Z,1.35
2023-01-13T01:19:52.195Z,1.50
2023-01-13T01:22:39.357Z,1.70
2023-01-13T01:25:26.534Z,1.55
2023-01-13T01:28:13.651Z,1.25
2023-01-13T01:31:02.098Z,1.10
2023-01-13T01:33:49.907Z,1.30
2023-01-13T01:36:37.239Z,1.52
2023-01-13T01:39:24.513Z,1.30
2023-01-13T01:42:35.159Z,1.23
2023-01-13T01:45:24.761Z,1.25
2023-01-13T01:48:12.525Z,1.38
2023-01-13T01:51:02.281Z,1.23
2023-01-13T01:53:53.599Z,1.35
2023-01-13T01:56:45.795Z,1.20
2023-01-13T01:59:34.274Z,1.10
2023-01-13T02:02:22.439Z,1.10
2023-01-13T02:05:10.038Z,1.27
2023-01-13T02:07:58.647Z,1.45
2023-01-13T02:10:50.582Z,1.10
2023-01-13T02:13:37.966Z,1.08
2023-01-13T02:16:25.124Z,1.27
2023-01-13T02:19:33.769Z,1.63
2023-01-13T02:22:53.020Z,1.20
2023-01-13T02:26:18.108Z,1.10
2023-01-13T02:29:51.912Z,0.93
2023-01-13T02:33:25.645Z,1.00
2023-01-13T02:36:31.862Z,1.25
2023-01-13T02:39:40.757Z,1.10
2023-01-13T02:42:55.494Z,1.35
2023-01-13T02:45:52.713Z,1.40
2023-01-13T02:48:42.498Z,1.38
2023-01-13T02:51:32.642Z,1.08
2023-01-13T02:54:29.708Z,0.90
2023-01-13T02:57:19.051Z,1.10
2023-01-13T03:00:12.277Z,1.10
2023-01-13T03:03:06.257Z,1.20
2023-01-13T03:06:21.943Z,1.40
2023-01-13T03:09:26.563Z,1.77
2023-01-13T03:12:16.508Z,1.67
2023-01-13T03:15:28.856Z,1.08
2023-01-13T03:18:25.277Z,1.55
2023-01-13T03:21:21.127Z,1.20
2023-01-13T03:24:44.988Z,1.33
2023-01-13T03:27:43.292Z,0.90
2023-01-13T03:30:41.468Z,2.40
2023-01-13T03:33:45.919Z,1.83
2023-01-13T03:36:36.181Z,1.10
2023-01-13T03:39:31.645Z,0.90
2023-01-13T03:42:24.189Z,1.30
2023-01-13T03:45:28.153Z,1.17
2023-01-13T03:48:19.198Z,1.23
2023-01-13T03:51:10.569Z,1.30
2023-01-13T03:54:02.344Z,1.00
2023-01-13T03:56:59.420Z,1.10
2023-01-13T03:59:52.339Z,1.35
2023-01-13T04:03:41.383Z,1.08
2023-01-13T04:07:01.115Z,1.23
2023-01-13T04:10:02.112Z,1.00
2023-01-13T04:13:06.933Z,1.80
2023-01-13T04:15:58.294Z,1.00
2023-01-13T04:18:45.653Z,1.30
2023-01-13T04:21:36.113Z,1.23
2023-01-13T04:24:29.327Z,1.23
2023-01-13T04:27:16.481Z,1.00
2023-01-13T04:30:05.308Z,1.25
2023-01-13T04:32:52.433Z,1.30
2023-01-13T04:35:39.784Z,0.95
2023-01-13T04:38:27.353Z,1.20
2023-01-13T04:41:14.519Z,1.05
2023-01-13T04:44:01.658Z,1.08
2023-01-13T04:46:48.964Z,1.10
2023-01-13T04:49:36.095Z,1.20
2023-01-13T04:52:23.346Z,0.90
2023-01-13T04:55:10.779Z,0.90
2023-01-13T04:58:11.534Z,0.68
2023-01-13T05:01:00.842Z,0.80
2023-01-13T05:07:04.710Z,0.90
2023-01-13T05:09:55.417Z,0.73
2023-01-13T05:13:01.345Z,0.90
2023-01-13T05:16:10.524Z,0.70
2023-01-13T05:18:58.603Z,0.90
2023-01-13T05:22:04.545Z,0.80
2023-01-13T05:25:10.071Z,1.08
2023-01-13T05:28:00.711Z,2.25
2023-01-13T05:30:51.255Z,0.82
2023-01-13T05:33:40.775Z,0.75
2023-01-13T05:36:27.832Z,0.70
2023-01-13T05:39:15.086Z,0.90
2023-01-13T05:42:38.062Z,0.68
2023-01-13T05:45:27.803Z,0.93
2023-01-13T05:48:17.051Z,1.17
2023-01-13T05:51:06.513Z,0.80
2023-01-13T05:53:53.715Z,0.88
2023-01-13T05:56:40.942Z,1.00
2023-01-13T05:59:28.086Z,0.70
2023-01-13T06:02:17.674Z,0.98
2023-01-13T06:05:05.174Z,0.98
2023-01-13T06:07:52.303Z,1.05
2023-01-13T06:10:39.625Z,0.88
2023-01-13T06:13:27.134Z,0.80
2023-01-13T06:16:22.932Z,2.13
2023-01-13T06:19:13.931Z,0.70
2023-01-13T06:22:08.719Z,0.80
2023-01-13T06:33:29.428Z,0.70
2023-01-13T06:36:27.116Z,0.80
2023-01-13T07:08:19.122Z,0.80
2023-01-13T07:14:34.644Z,0.70
2023-01-13T07:17:25.374Z,0.70
2023-01-13T07:20:14.405Z,0.60
2023-01-13T07:23:02.032Z,1.00
2023-01-13T07:25:49.370Z,0.77
2023-01-13T07:28:40.351Z,0.60
2023-01-13T07:31:30.453Z,0.68
2023-01-13T07:34:21.134Z,0.75
2023-01-13T07:37:08.643Z,0.70
2023-01-13T07:40:01.363Z,0.70
2023-01-13T07:49:27.906Z,0.75
2023-01-13T08:07:23.300Z,0.80
2023-01-13T08:10:16.710Z,0.70
2023-01-13T08:17:02.894Z,0.73
2023-01-13T09:13:53.453Z,1.10
2023-01-13T09:25:30.922Z,0.90
2023-01-13T09:28:28.888Z,1.08
2023-01-13T09:35:22.657Z,0.90
2023-01-13T10:42:29.093Z,0.57
2023-01-13T10:46:27.462Z,0.77
2023-01-13T10:49:33.789Z,0.60
2023-01-13T10:52:42.316Z,0.80
2023-01-13T11:36:29.119Z,1.00
2023-01-13T12:08:42.861Z,1.00
2023-01-13T12:12:16.024Z,1.10
2023-01-13T12:18:05.316Z,2.05
2023-01-13T12:21:14.092Z,1.13
2023-01-13T12:24:25.367Z,1.02
2023-01-13T12:27:26.003Z,1.40
2023-01-13T12:30:37.484Z,0.95
2023-01-13T12:33:43.850Z,1.20
2023-01-13T12:36:59.000Z,1.10
2023-01-13T12:39:58.775Z,1.20
2023-01-13T12:43:31.107Z,1.23
2023-01-13T12:46:24.935Z,1.42
2023-01-13T12:49:24.163Z,1.42
2023-01-13T12:52:15.133Z,1.67
2023-01-13T12:55:09.934Z,1.90
2023-01-13T12:58:13.793Z,1.88
2023-01-13T13:01:14.520Z,1.42
2023-01-13T13:04:41.805Z,1.63
2023-01-13T13:07:41.818Z,1.92
2023-01-13T13:10:34.058Z,1.80
2023-01-13T13:13:47.466Z,1.80
2023-01-13T13:16:51.295Z,1.73
2023-01-13T13:19:42.489Z,1.58
2023-01-13T13:22:45.403Z,1.90
2023-01-13T13:28:23.994Z,1.63
2023-01-13T13:31:33.747Z,1.92
2023-01-13T13:34:23.683Z,2.03
2023-01-13T13:37:26.136Z,2.03
2023-01-13T13:40:34.819Z,2.13
2023-01-13T13:43:40.654Z,1.77
2023-01-13T13:46:48.452Z,1.48
2023-01-13T13:49:42.470Z,2.20
2023-01-13T13:53:00.995Z,2.00
2023-01-13T13:56:03.419Z,2.35
2023-01-13T13:58:53.551Z,2.38
2023-01-13T14:01:45.442Z,3.28
2023-01-13T14:04:39.275Z,2.13
2023-01-13T14:07:28.282Z,1.77
2023-01-13T14:10:28.668Z,1.48
2023-01-13T14:13:23.096Z,1.65
2023-01-13T14:16:19.753Z,1.83
2023-01-13T14:19:23.639Z,1.70
2023-01-13T14:22:16.702Z,1.50
2023-01-13T14:25:41.667Z,1.63
2023-01-13T14:28:35.727Z,1.65
2023-01-13T14:31:35.239Z,1.83
2023-01-13T14:34:32.705Z,2.72
2023-01-13T14:37:42.373Z,1.90
2023-01-13T14:40:44.714Z,2.17
2023-01-13T14:43:32.229Z,1.80
2023-01-13T14:46:23.091Z,2.80
2023-01-13T14:49:31.354Z,3.20
2023-01-13T14:52:24.541Z,2.70
2023-01-13T14:55:36.134Z,2.55
2023-01-13T14:58:37.788Z,2.40
2023-01-13T15:01:36.453Z,1.85
2023-01-13T15:04:28.605Z,1.75
2023-01-13T15:07:25.978Z,2.55
2023-01-13T15:10:22.747Z,1.80
2023-01-13T15:13:35.865Z,1.83
2023-01-13T15:16:25.409Z,2.25
2023-01-13T15:19:13.799Z,1.63
2023-01-13T15:22:01.486Z,2.30
2023-01-13T15:24:49.409Z,2.80
2023-01-13T15:27:38.129Z,3.08
2023-01-13T15:30:29.452Z,2.60
2023-01-13T15:33:17.316Z,4.63
2023-01-13T15:36:26.083Z,3.05
2023-01-13T15:39:13.949Z,4.03
2023-01-13T15:42:22.943Z,4.22
2023-01-13T15:45:41.688Z,3.30
2023-01-13T15:48:32.969Z,3.72
2023-01-13T15:51:21.268Z,3.92
2023-01-13T15:54:12.099Z,4.10
2023-01-13T15:56:59.547Z,3.03
2023-01-13T15:59:46.983Z,2.80
2023-01-13T16:02:34.640Z,2.35
2023-01-13T16:05:24.078Z,2.53
2023-01-13T16:08:19.049Z,2.40
2023-01-13T16:11:16.297Z,2.75
2023-01-13T16:14:03.471Z,3.83
2023-01-13T16:16:53.203Z,9.93
2023-01-13T16:19:49.283Z,2.97
2023-01-13T16:22:36.538Z,3.55
2023-01-13T16:25:29.270Z,3.72
2023-01-13T16:31:35.215Z,3.67
2023-01-13T16:34:22.607Z,4.60
2023-01-13T16:37:29.804Z,4.00
2023-01-13T16:40:26.717Z,5.15
2023-01-13T16:43:17.901Z,5.90
2023-01-13T16:46:47.810Z,7.22
2023-01-13T16:49:35.254Z,5.85
2023-01-13T16:52:25.484Z,6.38
2023-01-13T16:55:19.178Z,4.70
2023-01-13T16:58:17.997Z,5.00
2023-01-13T17:01:47.123Z,5.53
2023-01-13T17:04:42.267Z,4.40
2023-01-13T17:07:29.973Z,10.27
2023-01-13T17:10:20.898Z,6.28
2023-01-13T17:13:16.793Z,4.85
2023-01-13T17:16:06.013Z,4.18
2023-01-13T17:18:54.558Z,3.58
2023-01-13T17:22:58.032Z,3.75
2023-01-13T17:25:54.965Z,3.45
2023-01-13T17:28:46.963Z,3.58
2023-01-13T17:31:39.114Z,3.40
2023-01-13T17:34:27.249Z,3.58
2023-01-13T17:37:15.286Z,3.70
2023-01-13T17:40:02.894Z,2.85
2023-01-13T17:42:51.437Z,2.33
2023-01-13T17:45:41.829Z,4.00
2023-01-13T17:48:29.462Z,3.08
2023-01-13T17:51:18.057Z,3.10
2023-01-13T17:54:06.978Z,2.40
2023-01-13T17:56:56.630Z,2.75
2023-01-13T17:59:47.643Z,2.40
2023-01-13T18:02:37.920Z,1.58
2023-01-13T18:05:25.798Z,1.42
2023-01-13T18:08:15.774Z,1.80
2023-01-13T18:11:06.967Z,1.95
2023-01-13T18:14:02.006Z,2.17
2023-01-13T18:26:02.873Z,1.58
2023-01-13T18:28:50.280Z,1.40
2023-01-13T18:31:38.031Z,2.05
2023-01-13T18:34:26.856Z,2.20
2023-01-13T18:37:17.423Z,2.22
2023-01-13T18:40:07.011Z,1.95
2023-01-13T18:42:59.470Z,2.17
2023-01-13T18:48:56.500Z,2.65
2023-01-13T18:51:49.591Z,2.33
2023-01-13T18:54:37.554Z,2.15
2023-01-13T18:57:25.882Z,2.72
2023-01-13T19:00:17.768Z,2.30
2023-01-13T19:05:53.220Z,2.88
2023-01-13T19:08:40.942Z,3.53
2023-01-13T19:11:30.637Z,2.55
2023-01-13T19:14:34.939Z,2.05
2023-01-13T19:17:24.171Z,2.45
2023-01-13T19:20:13.011Z,2.50
2023-01-13T19:23:04.018Z,2.95
2023-01-13T19:25:51.809Z,3.10
2023-01-13T19:28:41.090Z,4.03
2023-01-13T19:31:32.578Z,2.78
2023-01-13T19:34:20.524Z,2.72
2023-01-13T19:37:08.257Z,2.35
2023-01-13T19:39:57.159Z,2.00
2023-01-13T19:43:06.591Z,2.45
2023-01-13T19:45:54.470Z,2.95
2023-01-13T19:48:44.630Z,2.13
2023-01-13T19:51:35.376Z,2.53
2023-01-13T19:54:27.517Z,2.30
2023-01-13T19:57:15.892Z,2.70
2023-01-13T20:00:05.648Z,3.10
2023-01-13T20:02:56.552Z,2.60
2023-01-13T20:05:44.040Z,2.47
2023-01-13T20:08:35.887Z,2.92
2023-01-13T20:11:31.913Z,3.33
2023-01-13T20:14:20.798Z,4.20
2023-01-13T20:17:08.947Z,3.10
2023-01-13T20:20:01.545Z,3.03
2023-01-13T20:25:37.953Z,3.08
2023-01-13T20:28:37.468Z,3.33
2023-01-13T20:31:24.955Z,2.67
2023-01-13T20:34:12.404Z,3.47
2023-01-13T20:37:02.301Z,3.75
2023-01-13T20:39:49.851Z,3.10
2023-01-13T20:45:46.079Z,2.50
2023-01-13T20:48:36.492Z,3.00
2023-01-13T20:51:27.850Z,3.72
2023-01-13T20:54:15.561Z,2.80
2023-01-13T20:57:07.351Z,2.80
2023-01-13T20:59:58.206Z,3.30
2023-01-13T21:02:45.814Z,2.55
2023-01-13T21:05:44.741Z,3.08
2023-01-13T21:08:32.497Z,3.28
2023-01-13T21:11:42.131Z,2.67
2023-01-13T21:14:48.567Z,3.33
2023-01-13T21:21:14.309Z,4.53
2023-01-13T21:24:06.758Z,3.40
2023-01-13T21:27:02.229Z,3.17
2023-01-13T21:29:52.478Z,3.20
2023-01-13T21:32:55.331Z,3.03
2023-01-13T21:35:49.769Z,3.08
2023-01-13T21:38:50.297Z,2.80
2023-01-13T21:41:56.534Z,3.35
2023-01-13T21:45:02.957Z,3.28
2023-01-13T21:47:50.417Z,3.42
2023-01-13T21:50:38.927Z,3.30
2023-01-13T21:53:33.251Z,3.42
2023-01-13T21:56:23.582Z,2.88
2023-01-13T21:59:11.187Z,2.80
2023-01-13T22:02:27.778Z,3.15
2023-01-13T22:05:22.034Z,3.97
2023-01-13T22:08:12.227Z,3.40
2023-01-13T22:11:06.407Z,3.40
2023-01-13T22:14:07.074Z,3.22
2023-01-13T22:17:03.213Z,2.65
2023-01-13T22:19:59.143Z,3.38
2023-01-13T22:26:56.736Z,3.10
2023-01-13T22:29:45.599Z,2.92
2023-01-13T22:32:37.041Z,2.92
2023-01-13T22:35:35.443Z,4.22
2023-01-13T22:38:24.264Z,4.10
2023-01-13T22:41:12.032Z,3.92
2023-01-13T22:44:00.514Z,3.90
2023-01-13T22:46:49.256Z,4.32
2023-01-13T22:49:36.911Z,3.33
2023-01-13T22:52:24.202Z,3.72
2023-01-13T22:55:11.577Z,3.58
2023-01-13T22:57:58.985Z,3.13
2023-01-13T23:00:46.958Z,3.90
2023-01-13T23:03:39.678Z,3.90
2023-01-13T23:06:29.712Z,3.55
2023-01-13T23:09:16.790Z,3.67
2023-01-13T23:12:11.585Z,3.40
2023-01-13T23:14:59.112Z,3.72
2023-01-13T23:18:00.460Z,3.10
2023-01-13T23:20:47.991Z,3.15
2023-01-13T23:23:36.023Z,3.53
2023-01-13T23:26:25.936Z,3.83
2023-01-13T23:29:13.772Z,2.90
2023-01-13T23:32:01.755Z,2.97
2023-01-13T23:48:14.738Z,2.88
2023-01-13T23:51:11.177Z,3.80
2023-01-13T23:54:04.479Z,2.85
2023-01-13T23:56:55.770Z,3.20
2023-01-13T23:59:43.203Z,2.85
